»·PEaware :: DFGCW KABQ-KGUP

DFGCW :: KABQ-KGUP

FLIGHT INFORMATION

Flight Status: Arrived
Operator: Unknown
More flights by this operator :: More flights under this callsign
Pilot: Klaus A. (15485)
Aircraft: PILATUS PC-12 EAGLE
(PC12)
More flights by this aircraft type
Origin: KABQ Albuquerque Intl Sunport
United States
Destination: KGUP Gallup Mun
United States
More flights between these airports :: More routes between these airports
Route: +LARGO3 GUP
File this flight plan on PilotEdge
Remarks:
Altitude:
(Current/Filed)
12,000ft
Speed:
(Current/Filed)
230kts
Departed: 24-May-18 07:57 AM
Arrived: 24-May-18 08:42 AM
Distance/Time
Traveled:
110nm/0:45
Distance/Time
To Go:
Arrived

Flight Plot

Page will automatically refresh every two minutes.

Flight plan parsing failed; only flown route is shown


Map Options




Map Legend


Flown Route
Filed Route
Departure Airport
Arrival Airport
Navaid (VOR, NDB)
Fix

Horizontal Profiles

Position Reports

Time Latitude Longitude Heading Altitude Ground
Speed
24-May-18 07:31 35.036402 -106.620545 180 5359ft 0kts
24-May-18 07:32 35.036402 -106.620545 180 5359ft 0kts
24-May-18 07:33 35.036402 -106.620545 180 5359ft 0kts
24-May-18 07:34 35.036402 -106.620545 180 5359ft 0kts
24-May-18 07:35 35.036402 -106.620545 180 5359ft 0kts
24-May-18 07:36 35.036402 -106.620545 180 5359ft 0kts
24-May-18 07:37 35.036402 -106.620545 180 5359ft 0kts
24-May-18 07:38 35.036402 -106.620545 180 5359ft 0kts
24-May-18 07:39 35.036402 -106.620545 180 5359ft 0kts
24-May-18 07:40 35.036402 -106.620545 180 5359ft 0kts
24-May-18 07:41 35.036402 -106.620545 180 5359ft 0kts
24-May-18 07:42 35.036402 -106.620545 180 5359ft 0kts
24-May-18 07:43 35.036402 -106.620545 180 5359ft 0kts
24-May-18 07:44 35.036402 -106.620545 179 5360ft 0kts
24-May-18 07:45 35.036402 -106.620545 180 5360ft 0kts
24-May-18 07:46 35.036402 -106.620545 180 5359ft 0kts
24-May-18 07:47 35.036402 -106.620545 180 5359ft 0kts
24-May-18 07:48 35.036402 -106.620545 180 5359ft 0kts
24-May-18 07:49 35.035184 -106.619608 125 5359ft 13kts
24-May-18 07:50 35.032316 -106.620579 222 5360ft 14kts
24-May-18 07:51 35.029145 -106.624388 224 5360ft 18kts
24-May-18 07:52 35.025167 -106.629181 224 5360ft 21kts
24-May-18 07:53 35.022951 -106.631249 140 5360ft 0kts
24-May-18 07:54 35.022951 -106.631249 140 5360ft 0kts
24-May-18 07:55 35.022951 -106.631249 140 5360ft 0kts
24-May-18 07:56 35.022811 -106.631076 135 5359ft 8kts
24-May-18 07:57 35.031066 -106.620166 40 5646ft 117kts
24-May-18 07:58 35.057853 -106.591038 14 7370ft 139kts
24-May-18 07:59 35.088875 -106.626549 297 7927ft 212kts
24-May-18 08:00 35.090474 -106.698618 237 8173ft 236kts
24-May-18 08:01 35.063085 -106.768344 243 9111ft 226kts
24-May-18 08:02 35.038157 -106.832185 259 10685ft 205kts
24-May-18 08:03 35.066431 -106.887179 289 12107ft 198kts
24-May-18 08:04 35.078517 -106.951327 280 13310ft 197kts
24-May-18 08:05 35.092288 -107.015889 281 14040ft 215kts
24-May-18 08:06 35.109508 -107.090379 282 14032ft 237kts
24-May-18 08:07 35.128089 -107.169163 282 14029ft 243kts
24-May-18 08:08 35.146903 -107.248790 282 14001ft 245kts
24-May-18 08:09 35.165790 -107.329328 282 14001ft 248kts
24-May-18 08:10 35.184830 -107.410010 282 14046ft 247kts
24-May-18 08:11 35.203843 -107.491087 282 14046ft 248kts
24-May-18 08:12 35.223002 -107.573303 282 14047ft 253kts
24-May-18 08:13 35.242101 -107.655478 281 14047ft 254kts
24-May-18 08:14 35.251366 -107.740330 276 14046ft 254kts
24-May-18 08:15 35.266420 -107.825647 279 14048ft 258kts
24-May-18 08:16 35.284077 -107.910943 280 13999ft 260kts
24-May-18 08:17 35.302220 -107.996243 280 13994ft 259kts
24-May-18 08:18 35.320468 -108.081905 280 13994ft 259kts
24-May-18 08:19 35.338545 -108.167084 280 13994ft 259kts
24-May-18 08:20 35.356603 -108.252522 280 13986ft 259kts
24-May-18 08:21 35.374626 -108.337754 280 13984ft 257kts
24-May-18 08:22 35.391088 -108.422451 263 13927ft 252kts
24-May-18 08:23 35.401993 -108.506803 280 13966ft 255kts
24-May-18 08:24 35.419170 -108.591172 280 13966ft 255kts
24-May-18 08:25 35.444788 -108.668594 325 13798ft 270kts
24-May-18 08:26 35.496674 -108.625964 69 12526ft 253kts
24-May-18 08:27 35.535598 -108.558979 37 11321ft 243kts
24-May-18 08:28 35.586880 -108.514474 24 10961ft 204kts
24-May-18 08:29 35.618313 -108.466661 71 10592ft 194kts
24-May-18 08:30 35.638335 -108.400345 72 9500ft 214kts
24-May-18 08:31 35.613173 -108.378535 246 9475ft 150kts
24-May-18 08:32 35.597532 -108.424274 247 9468ft 142kts
24-May-18 08:33 35.586028 -108.470067 250 9553ft 128kts
24-May-18 08:34 35.576387 -108.511131 250 9476ft 131kts
24-May-18 08:35 35.566718 -108.552568 250 8823ft 116kts
24-May-18 08:36 35.557923 -108.590133 249 8672ft 115kts
24-May-18 08:37 35.548939 -108.628445 249 8669ft 117kts
24-May-18 08:38 35.540237 -108.665506 249 8286ft 105kts
24-May-18 08:39 35.532270 -108.699344 250 7771ft 106kts
24-May-18 08:40 35.523698 -108.735764 251 7193ft 113kts
24-May-18 08:41 35.515043 -108.772516 251 6588ft 104kts
24-May-18 08:42 35.510927 -108.790385 304 6478ft 18kts
24-May-18 08:43 35.511670 -108.790415 74 6477ft 0kts
24-May-18 08:44 35.512539 -108.786709 73 6477ft 15kts
24-May-18 08:45 35.514039 -108.783329 354 6477ft 7kts
24-May-18 08:46 35.514304 -108.783099 76 6478ft 0kts
24-May-18 08:47 35.514304 -108.783100 76 6478ft 0kts
24-May-18 08:48 35.514304 -108.783100 76 6478ft 0kts
24-May-18 08:49 35.514304 -108.783100 76 6478ft 0kts
24-May-18 08:50 35.514304 -108.783100 76 6478ft 0kts
24-May-18 08:51 35.514304 -108.783100 76 6478ft 0kts
24-May-18 08:52 35.514304 -108.783100 76 6478ft 0kts
24-May-18 08:53 35.514304 -108.783100 76 6478ft 0kts
24-May-18 08:54 35.514304 -108.783100 76 6478ft 0kts
24-May-18 08:55 35.514304 -108.783100 76 6478ft 0kts
24-May-18 08:56 35.514304 -108.783100 76 6478ft 0kts

Navigation Log

Ident Type
Flight plan parsing failed, navigation log unavailable